McCaulley, Texas
Current Conditions -  °F | °C
As of 11:55 PM on Saturday 22 Nov 2014 (Local Time) from KSWW Reporting Station
Clear Clear  
Wind Chill: 52°   Ceiling: Unl
Heat Index: 52°   Visibility: 7mi
Dew Point: 52°   Wind: 12mph
Humidity: 100%   Direction: 170°S
Pressure: 29.75"   Gusts: NA
Location:  32.78°N, 100.21°W
Report Text: KSWW 230555Z AUTO 17010KT 7SM CLR 11/11 A2975 RMK AO2 T01100110 10125 20110 401880110
Loading
Personal Weather Stations






























Interactive Weather Map New forecast layout! Learn more

10-Day Weather Forecast

Advertisements
Track Severe Weather on mobile